sensor_id;sensor_type;location;lat;lon;timestamp;pressure;altitude;pressure_sealevel;temperature;humidity
33949;BME280;20229;49.856;19.030;2023-12-20T00:02:27;101134.05;;;7.81;50.56
33949;BME280;20229;49.856;19.030;2023-12-20T00:07:41;101126.09;;;7.76;50.31
33949;BME280;20229;49.856;19.030;2023-12-20T00:12:55;101104.46;;;7.73;50.94
33949;BME280;20229;49.856;19.030;2023-12-20T00:18:11;101087.27;;;7.73;50.58
33949;BME280;20229;49.856;19.030;2023-12-20T00:23:26;101085.13;;;7.81;51.17
33949;BME280;20229;49.856;19.030;2023-12-20T00:28:40;101077.81;;;7.83;51.49
33949;BME280;20229;49.856;19.030;2023-12-20T00:33:56;101075.10;;;7.83;52.37
33949;BME280;20229;49.856;19.030;2023-12-20T00:39:11;101075.33;;;7.77;52.41
33949;BME280;20229;49.856;19.030;2023-12-20T00:44:25;101065.34;;;7.77;52.02
33949;BME280;20229;49.856;19.030;2023-12-20T00:49:40;101050.87;;;7.77;51.46
33949;BME280;20229;49.856;19.030;2023-12-20T00:54:53;101039.66;;;7.86;50.37
33949;BME280;20229;49.856;19.030;2023-12-20T01:00:09;101047.56;;;7.92;50.22
33949;BME280;20229;49.856;19.030;2023-12-20T01:05:23;101039.14;;;7.98;49.36
33949;BME280;20229;49.856;19.030;2023-12-20T01:10:39;101028.03;;;8.04;49.05
33949;BME280;20229;49.856;19.030;2023-12-20T01:15:54;101024.23;;;8.08;49.43
33949;BME280;20229;49.856;19.030;2023-12-20T01:21:09;101017.87;;;8.09;49.34
33949;BME280;20229;49.856;19.030;2023-12-20T01:26:24;101014.11;;;8.12;49.09
33949;BME280;20229;49.856;19.030;2023-12-20T01:31:38;101006.79;;;8.14;48.58
33949;BME280;20229;49.856;19.030;2023-12-20T01:36:52;100979.59;;;8.14;48.56
33949;BME280;20229;49.856;19.030;2023-12-20T01:42:06;100986.24;;;8.07;48.89
33949;BME280;20229;49.856;19.030;2023-12-20T01:47:20;100990.36;;;7.95;49.32
33949;BME280;20229;49.856;19.030;2023-12-20T01:52:36;100974.73;;;7.78;49.71
33949;BME280;20229;49.856;19.030;2023-12-20T01:57:51;100974.15;;;7.70;49.56
33949;BME280;20229;49.856;19.030;2023-12-20T02:03:05;100969.98;;;7.61;49.92
33949;BME280;20229;49.856;19.030;2023-12-20T02:08:20;100947.72;;;7.52;50.42
33949;BME280;20229;49.856;19.030;2023-12-20T02:13:34;100933.00;;;7.35;50.74
33949;BME280;20229;49.856;19.030;2023-12-20T02:18:48;100920.64;;;7.27;50.94
33949;BME280;20229;49.856;19.030;2023-12-20T02:24:02;100917.59;;;7.12;51.33
33949;BME280;20229;49.856;19.030;2023-12-20T02:29:17;100926.98;;;7.04;50.25
33949;BME280;20229;49.856;19.030;2023-12-20T02:34:31;100925.27;;;7.01;49.89
33949;BME280;20229;49.856;19.030;2023-12-20T02:39:45;100916.17;;;7.02;49.70
33949;BME280;20229;49.856;19.030;2023-12-20T02:44:59;100910.85;;;6.99;50.33
33949;BME280;20229;49.856;19.030;2023-12-20T02:50:13;100908.87;;;7.04;50.08
33949;BME280;20229;49.856;19.030;2023-12-20T02:55:27;100902.07;;;7.16;50.42
33949;BME280;20229;49.856;19.030;2023-12-20T03:00:41;100906.12;;;7.28;50.83
33949;BME280;20229;49.856;19.030;2023-12-20T03:05:55;100897.17;;;7.26;51.83
33949;BME280;20229;49.856;19.030;2023-12-20T03:11:09;100904.35;;;7.27;51.31
33949;BME280;20229;49.856;19.030;2023-12-20T03:16:25;100906.88;;;7.31;52.00
33949;BME280;20229;49.856;19.030;2023-12-20T03:21:39;100905.64;;;7.40;51.30
33949;BME280;20229;49.856;19.030;2023-12-20T03:26:53;100901.60;;;7.50;51.15
33949;BME280;20229;49.856;19.030;2023-12-20T03:32:08;100908.45;;;7.60;51.07
33949;BME280;20229;49.856;19.030;2023-12-20T03:37:23;100901.93;;;7.64;51.00
33949;BME280;20229;49.856;19.030;2023-12-20T03:42:36;100886.38;;;7.68;51.24
33949;BME280;20229;49.856;19.030;2023-12-20T03:47:50;100883.59;;;7.70;51.43
33949;BME280;20229;49.856;19.030;2023-12-20T03:53:09;100897.88;;;7.75;51.84
33949;BME280;20229;49.856;19.030;2023-12-20T03:58:23;100902.36;;;7.76;52.84
33949;BME280;20229;49.856;19.030;2023-12-20T04:03:38;100905.91;;;7.78;53.49
33949;BME280;20229;49.856;19.030;2023-12-20T04:08:54;100911.35;;;7.78;58.25
33949;BME280;20229;49.856;19.030;2023-12-20T04:14:07;100911.73;;;7.69;62.49
33949;BME280;20229;49.856;19.030;2023-12-20T04:19:22;100921.27;;;7.57;65.71
33949;BME280;20229;49.856;19.030;2023-12-20T04:24:36;100917.20;;;7.45;67.22
33949;BME280;20229;49.856;19.030;2023-12-20T04:29:49;100908.67;;;7.32;71.09
33949;BME280;20229;49.856;19.030;2023-12-20T04:35:11;100916.17;;;7.26;71.29
33949;BME280;20229;49.856;19.030;2023-12-20T04:40:26;100915.84;;;7.11;71.63
33949;BME280;20229;49.856;19.030;2023-12-20T04:45:40;100919.84;;;7.01;72.81
33949;BME280;20229;49.856;19.030;2023-12-20T04:50:53;100908.45;;;6.91;72.42
33949;BME280;20229;49.856;19.030;2023-12-20T04:56:08;100886.91;;;6.87;73.67
33949;BME280;20229;49.856;19.030;2023-12-20T05:01:22;100876.47;;;6.76;75.70
33949;BME280;20229;49.856;19.030;2023-12-20T05:06:36;100865.95;;;6.67;76.38
33949;BME280;20229;49.856;19.030;2023-12-20T05:11:56;100864.49;;;6.58;77.72
33949;BME280;20229;49.856;19.030;2023-12-20T05:17:10;100862.00;;;6.52;78.53
33949;BME280;20229;49.856;19.030;2023-12-20T05:22:24;100882.27;;;6.42;79.96
33949;BME280;20229;49.856;19.030;2023-12-20T05:27:38;100859.90;;;6.35;80.39
33949;BME280;20229;49.856;19.030;2023-12-20T05:32:53;100864.55;;;6.32;80.86
33949;BME280;20229;49.856;19.030;2023-12-20T05:38:08;100864.66;;;6.29;80.97
33949;BME280;20229;49.856;19.030;2023-12-20T05:43:22;100854.06;;;6.22;81.62
33949;BME280;20229;49.856;19.030;2023-12-20T05:48:36;100867.83;;;6.16;81.67
33949;BME280;20229;49.856;19.030;2023-12-20T05:53:50;100875.30;;;6.10;82.19
33949;BME280;20229;49.856;19.030;2023-12-20T05:59:04;100875.39;;;6.07;82.21
33949;BME280;20229;49.856;19.030;2023-12-20T06:04:18;100871.02;;;6.03;82.28
33949;BME280;20229;49.856;19.030;2023-12-20T06:09:32;100876.52;;;6.01;83.29
33949;BME280;20229;49.856;19.030;2023-12-20T06:14:46;100889.38;;;5.94;84.76
33949;BME280;20229;49.856;19.030;2023-12-20T06:20:03;100898.52;;;5.90;83.09
33949;BME280;20229;49.856;19.030;2023-12-20T06:25:21;100905.09;;;5.83;86.35
33949;BME280;20229;49.856;19.030;2023-12-20T06:30:35;100912.47;;;5.78;85.61
33949;BME280;20229;49.856;19.030;2023-12-20T06:35:49;100928.79;;;5.77;85.45
33949;BME280;20229;49.856;19.030;2023-12-20T06:41:04;100931.50;;;5.77;86.88
33949;BME280;20229;49.856;19.030;2023-12-20T06:46:19;100934.30;;;5.73;86.42
33949;BME280;20229;49.856;19.030;2023-12-20T06:51:34;100950.66;;;5.70;86.04
33949;BME280;20229;49.856;19.030;2023-12-20T06:56:47;100957.01;;;5.69;86.37
33949;BME280;20229;49.856;19.030;2023-12-20T07:02:02;100948.88;;;5.69;86.38
33949;BME280;20229;49.856;19.030;2023-12-20T07:07:16;100946.28;;;5.66;87.41
33949;BME280;20229;49.856;19.030;2023-12-20T07:12:30;100943.48;;;5.69;87.06
33949;BME280;20229;49.856;19.030;2023-12-20T07:17:44;100949.80;;;5.68;87.93
33949;BME280;20229;49.856;19.030;2023-12-20T07:23:00;100950.66;;;5.70;89.45
33949;BME280;20229;49.856;19.030;2023-12-20T07:28:14;100951.50;;;5.72;89.98
33949;BME280;20229;49.856;19.030;2023-12-20T07:33:28;100956.80;;;5.75;88.61
33949;BME280;20229;49.856;19.030;2023-12-20T07:38:42;100968.54;;;5.76;89.50
33949;BME280;20229;49.856;19.030;2023-12-20T07:43:58;100968.41;;;5.79;90.41
33949;BME280;20229;49.856;19.030;2023-12-20T07:49:13;100975.53;;;5.83;89.86
33949;BME280;20229;49.856;19.030;2023-12-20T07:54:27;100980.82;;;5.86;91.03
33949;BME280;20229;49.856;19.030;2023-12-20T07:59:41;100974.52;;;5.86;92.83
33949;BME280;20229;49.856;19.030;2023-12-20T08:04:55;100969.95;;;5.88;92.64
33949;BME280;20229;49.856;19.030;2023-12-20T08:10:10;100977.98;;;5.91;93.61
33949;BME280;20229;49.856;19.030;2023-12-20T08:15:24;100969.79;;;5.94;90.20
33949;BME280;20229;49.856;19.030;2023-12-20T08:20:38;100955.30;;;5.95;92.47
33949;BME280;20229;49.856;19.030;2023-12-20T08:25:52;100957.91;;;5.98;93.35
33949;BME280;20229;49.856;19.030;2023-12-20T08:31:06;100949.55;;;6.04;92.36
33949;BME280;20229;49.856;19.030;2023-12-20T08:36:25;100948.47;;;6.10;92.70
33949;BME280;20229;49.856;19.030;2023-12-20T08:41:39;100953.01;;;6.09;92.37
33949;BME280;20229;49.856;19.030;2023-12-20T08:46:54;100957.48;;;6.10;92.17
33949;BME280;20229;49.856;19.030;2023-12-20T08:52:10;100959.37;;;6.08;92.01
33949;BME280;20229;49.856;19.030;2023-12-20T08:57:24;100972.02;;;6.08;93.74
33949;BME280;20229;49.856;19.030;2023-12-20T09:02:39;100972.95;;;6.07;92.88
33949;BME280;20229;49.856;19.030;2023-12-20T09:07:53;100983.87;;;6.05;92.50
33949;BME280;20229;49.856;19.030;2023-12-20T09:13:07;100983.97;;;6.02;93.53
33949;BME280;20229;49.856;19.030;2023-12-20T09:18:24;100987.55;;;6.03;93.06
33949;BME280;20229;49.856;19.030;2023-12-20T09:23:38;100993.82;;;6.05;92.12
33949;BME280;20229;49.856;19.030;2023-12-20T09:28:52;100983.77;;;6.08;91.40
33949;BME280;20229;49.856;19.030;2023-12-20T09:34:06;100964.90;;;6.05;92.94
33949;BME280;20229;49.856;19.030;2023-12-20T09:39:22;100967.64;;;6.04;92.83
33949;BME280;20229;49.856;19.030;2023-12-20T09:44:37;100955.91;;;6.03;92.93
33949;BME280;20229;49.856;19.030;2023-12-20T09:49:56;100949.55;;;6.04;93.05
33949;BME280;20229;49.856;19.030;2023-12-20T09:55:10;100938.77;;;6.03;93.44
33949;BME280;20229;49.856;19.030;2023-12-20T10:00:25;100937.73;;;6.07;93.24
33949;BME280;20229;49.856;19.030;2023-12-20T10:09:57;100937.70;;;6.08;92.53
33949;BME280;20229;49.856;19.030;2023-12-20T10:15:23;100936.06;;;6.03;93.51
33949;BME280;20229;49.856;19.030;2023-12-20T10:20:37;100930.57;;;6.04;93.21
33949;BME280;20229;49.856;19.030;2023-12-20T10:26:00;100956.90;;;6.01;93.28
33949;BME280;20229;49.856;19.030;2023-12-20T10:36:41;100954.34;;;5.96;92.38
33949;BME280;20229;49.856;19.030;2023-12-20T10:41:55;100949.02;;;5.93;93.66
33949;BME280;20229;49.856;19.030;2023-12-20T10:47:09;100939.16;;;5.90;93.39
33949;BME280;20229;49.856;19.030;2023-12-20T10:52:27;100937.38;;;5.89;95.53
33949;BME280;20229;49.856;19.030;2023-12-20T10:57:47;100953.70;;;5.88;94.71
33949;BME280;20229;49.856;19.030;2023-12-20T11:03:05;100935.62;;;5.88;94.47
33949;BME280;20229;49.856;19.030;2023-12-20T11:19:16;100956.50;;;5.85;94.89
33949;BME280;20229;49.856;19.030;2023-12-20T11:24:31;100946.38;;;5.90;94.39
33949;BME280;20229;49.856;19.030;2023-12-20T11:29:52;100948.22;;;5.89;95.57
33949;BME280;20229;49.856;19.030;2023-12-20T11:35:18;100965.35;;;5.90;94.84
33949;BME280;20229;49.856;19.030;2023-12-20T11:40:34;100953.87;;;5.83;95.66
33949;BME280;20229;49.856;19.030;2023-12-20T11:45:51;100943.84;;;5.85;95.54
33949;BME280;20229;49.856;19.030;2023-12-20T11:51:12;100939.30;;;5.86;94.96
33949;BME280;20229;49.856;19.030;2023-12-20T11:56:27;100923.02;;;5.87;95.06
33949;BME280;20229;49.856;19.030;2023-12-20T12:01:47;100930.29;;;5.85;94.84
33949;BME280;20229;49.856;19.030;2023-12-20T12:07:02;100939.30;;;5.86;94.58
33949;BME280;20229;49.856;19.030;2023-12-20T12:12:17;100942.10;;;5.83;95.65
33949;BME280;20229;49.856;19.030;2023-12-20T12:17:32;100948.38;;;5.85;95.34
33949;BME280;20229;49.856;19.030;2023-12-20T12:28:42;100944.97;;;5.78;95.36
33949;BME280;20229;49.856;19.030;2023-12-20T12:33:56;100940.45;;;5.79;95.09
33949;BME280;20229;49.856;19.030;2023-12-20T12:39:15;100935.12;;;5.75;95.89
33949;BME280;20229;49.856;19.030;2023-12-20T12:44:32;100931.41;;;5.80;95.78
33949;BME280;20229;49.856;19.030;2023-12-20T12:49:47;100933.26;;;5.78;95.36
33949;BME280;20229;49.856;19.030;2023-12-20T12:55:01;100919.62;;;5.81;95.64
33949;BME280;20229;49.856;19.030;2023-12-20T13:00:18;100924.97;;;5.82;95.41
33949;BME280;20229;49.856;19.030;2023-12-20T13:05:33;100921.28;;;5.85;95.36
33949;BME280;20229;49.856;19.030;2023-12-20T13:10:47;100914.98;;;5.84;95.03
33949;BME280;20229;49.856;19.030;2023-12-20T13:16:01;100920.34;;;5.86;94.94
33949;BME280;20229;49.856;19.030;2023-12-20T13:21:15;100912.30;;;5.83;94.66
33949;BME280;20229;49.856;19.030;2023-12-20T13:26:30;100916.91;;;5.81;96.00
33949;BME280;20229;49.856;19.030;2023-12-20T13:31:44;100906.07;;;5.81;95.53
33949;BME280;20229;49.856;19.030;2023-12-20T13:36:58;100904.24;;;5.81;94.97
33949;BME280;20229;49.856;19.030;2023-12-20T13:42:12;100899.77;;;5.80;94.68
33949;BME280;20229;49.856;19.030;2023-12-20T13:47:26;100897.06;;;5.80;94.99
33949;BME280;20229;49.856;19.030;2023-12-20T13:52:40;100902.84;;;5.69;94.33
33949;BME280;20229;49.856;19.030;2023-12-20T13:57:54;100927.60;;;5.57;93.83
33949;BME280;20229;49.856;19.030;2023-12-20T14:03:09;100927.70;;;5.54;95.07
33949;BME280;20229;49.856;19.030;2023-12-20T14:08:28;100917.53;;;5.62;94.93
33949;BME280;20229;49.856;19.030;2023-12-20T14:13:42;100916.32;;;5.71;94.45
33949;BME280;20229;49.856;19.030;2023-12-20T14:19:00;100899.97;;;5.74;94.25
33949;BME280;20229;49.856;19.030;2023-12-20T14:24:16;100855.16;;;5.37;93.50
33949;BME280;20229;49.856;19.030;2023-12-20T14:29:31;100894.51;;;5.47;93.44
33949;BME280;20229;49.856;19.030;2023-12-20T14:34:45;100883.24;;;5.33;94.09
33949;BME280;20229;49.856;19.030;2023-12-20T14:39:59;100892.55;;;5.24;94.19
33949;BME280;20229;49.856;19.030;2023-12-20T14:45:14;100881.13;;;5.15;94.83
33949;BME280;20229;49.856;19.030;2023-12-20T14:50:29;100901.90;;;5.14;94.88
33949;BME280;20229;49.856;19.030;2023-12-20T14:55:43;100902.83;;;5.13;94.35
33949;BME280;20229;49.856;19.030;2023-12-20T15:00:58;100910.80;;;5.18;94.21
33949;BME280;20229;49.856;19.030;2023-12-20T15:06:12;100904.51;;;5.17;94.12
33949;BME280;20229;49.856;19.030;2023-12-20T15:11:26;100910.01;;;5.14;94.07
33949;BME280;20229;49.856;19.030;2023-12-20T15:16:40;100910.10;;;5.11;93.78
33949;BME280;20229;49.856;19.030;2023-12-20T15:21:55;100912.87;;;5.10;93.83
33949;BME280;20229;49.856;19.030;2023-12-20T15:27:09;100917.49;;;5.06;93.72
33949;BME280;20229;49.856;19.030;2023-12-20T15:32:23;100919.31;;;5.06;93.83
33949;BME280;20229;49.856;19.030;2023-12-20T15:37:40;100919.34;;;5.04;93.79
33949;BME280;20229;49.856;19.030;2023-12-20T15:42:54;100908.43;;;5.07;93.66
33949;BME280;20229;49.856;19.030;2023-12-20T15:48:09;100903.87;;;5.09;92.96
33949;BME280;20229;49.856;19.030;2023-12-20T15:53:30;100908.34;;;5.10;92.34
33949;BME280;20229;49.856;19.030;2023-12-20T15:58:46;100918.52;;;5.02;92.40
33949;BME280;20229;49.856;19.030;2023-12-20T16:04:05;100913.38;;;4.93;92.56
33949;BME280;20229;49.856;19.030;2023-12-20T16:09:20;100912.52;;;4.91;92.78
33949;BME280;20229;49.856;19.030;2023-12-20T16:14:34;100922.34;;;4.95;92.86
33949;BME280;20229;49.856;19.030;2023-12-20T16:19:48;100915.90;;;4.99;92.73
33949;BME280;20229;49.856;19.030;2023-12-20T16:25:03;100915.81;;;5.02;92.01
33949;BME280;20229;49.856;19.030;2023-12-20T16:30:17;100913.14;;;5.00;91.83
33949;BME280;20229;49.856;19.030;2023-12-20T16:35:31;100904.20;;;4.98;91.13
33949;BME280;20229;49.856;19.030;2023-12-20T16:40:46;100908.05;;;4.90;91.32
33949;BME280;20229;49.856;19.030;2023-12-20T16:46:06;100908.29;;;4.82;91.57
33949;BME280;20229;49.856;19.030;2023-12-20T16:51:21;100903.84;;;4.79;91.88
33949;BME280;20229;49.856;19.030;2023-12-20T16:56:36;100907.58;;;4.75;91.22
33949;BME280;20229;49.856;19.030;2023-12-20T17:01:50;100915.92;;;4.68;91.89
33949;BME280;20229;49.856;19.030;2023-12-20T17:07:06;100917.82;;;4.64;91.64
33949;BME280;20229;49.856;19.030;2023-12-20T17:12:20;100924.17;;;4.63;91.81
33949;BME280;20229;49.856;19.030;2023-12-20T17:17:34;100922.57;;;4.56;91.80
33949;BME280;20229;49.856;19.030;2023-12-20T17:22:49;100917.33;;;4.50;91.84
33949;BME280;20229;49.856;19.030;2023-12-20T17:28:03;100923.77;;;4.44;92.07
33949;BME280;20229;49.856;19.030;2023-12-20T17:33:17;100919.26;;;4.45;91.98
33949;BME280;20229;49.856;19.030;2023-12-20T17:38:34;100919.02;;;4.54;91.89
33949;BME280;20229;49.856;19.030;2023-12-20T17:43:52;100913.35;;;4.63;91.60
33949;BME280;20229;49.856;19.030;2023-12-20T17:49:10;100912.98;;;4.75;91.04
33949;BME280;20229;49.856;19.030;2023-12-20T17:54:24;100923.62;;;4.82;90.61
33949;BME280;20229;49.856;19.030;2023-12-20T17:59:39;100919.81;;;4.89;90.34
33949;BME280;20229;49.856;19.030;2023-12-20T18:04:55;100933.25;;;4.92;90.15
33949;BME280;20229;49.856;19.030;2023-12-20T18:10:09;100917.76;;;4.97;89.32
33949;BME280;20229;49.856;19.030;2023-12-20T18:15:24;100930.25;;;5.01;88.82
33949;BME280;20229;49.856;19.030;2023-12-20T18:20:38;100918.46;;;5.03;88.76
33949;BME280;20229;49.856;19.030;2023-12-20T18:25:52;100918.69;;;4.96;88.11
33949;BME280;20229;49.856;19.030;2023-12-20T18:31:08;100925.05;;;4.95;88.27
33949;BME280;20229;49.856;19.030;2023-12-20T18:36:22;100919.52;;;4.98;87.88
33949;BME280;20229;49.856;19.030;2023-12-20T18:41:36;100920.29;;;5.03;87.53
33949;BME280;20229;49.856;19.030;2023-12-20T18:46:52;100922.90;;;5.06;86.82
33949;BME280;20229;49.856;19.030;2023-12-20T18:52:06;100928.23;;;5.09;86.80
33949;BME280;20229;49.856;19.030;2023-12-20T18:57:20;100936.22;;;5.12;86.70
33949;BME280;20229;49.856;19.030;2023-12-20T19:02:37;100940.63;;;5.16;86.09
33949;BME280;20229;49.856;19.030;2023-12-20T19:07:51;100936.03;;;5.18;85.78
33949;BME280;20229;49.856;19.030;2023-12-20T19:13:07;100926.06;;;5.20;85.76
33949;BME280;20229;49.856;19.030;2023-12-20T19:18:21;100905.34;;;5.19;85.30
33949;BME280;20229;49.856;19.030;2023-12-20T19:23:35;100907.46;;;5.10;84.86
33949;BME280;20229;49.856;19.030;2023-12-20T19:28:50;100894.37;;;4.94;85.55
33949;BME280;20229;49.856;19.030;2023-12-20T19:34:04;100887.52;;;4.83;85.69
33949;BME280;20229;49.856;19.030;2023-12-20T19:39:18;100899.52;;;4.74;85.76
33949;BME280;20229;49.856;19.030;2023-12-20T19:44:32;100905.04;;;4.69;85.83
33949;BME280;20229;49.856;19.030;2023-12-20T19:49:47;100898.90;;;4.64;85.86
33949;BME280;20229;49.856;19.030;2023-12-20T19:55:01;100905.34;;;4.59;85.79
33949;BME280;20229;49.856;19.030;2023-12-20T20:00:15;100889.36;;;4.51;85.84
33949;BME280;20229;49.856;19.030;2023-12-20T20:05:29;100875.92;;;4.48;85.99
33949;BME280;20229;49.856;19.030;2023-12-20T20:10:43;100872.39;;;4.46;86.04
33949;BME280;20229;49.856;19.030;2023-12-20T20:15:58;100869.70;;;4.46;85.82
33949;BME280;20229;49.856;19.030;2023-12-20T20:21:14;100858.11;;;4.41;85.88
33949;BME280;20229;49.856;19.030;2023-12-20T20:26:28;100856.34;;;4.40;86.02
33949;BME280;20229;49.856;19.030;2023-12-20T20:31:42;100867.24;;;4.37;85.77
33949;BME280;20229;49.856;19.030;2023-12-20T20:36:56;100881.71;;;4.34;85.81
33949;BME280;20229;49.856;19.030;2023-12-20T20:42:12;100883.62;;;4.30;85.81
33949;BME280;20229;49.856;19.030;2023-12-20T20:47:26;100887.26;;;4.29;85.72
33949;BME280;20229;49.856;19.030;2023-12-20T20:52:39;100877.41;;;4.27;85.68
33949;BME280;20229;49.856;19.030;2023-12-20T20:57:53;100878.30;;;4.27;85.72
33949;BME280;20229;49.856;19.030;2023-12-20T21:03:08;100873.01;;;4.24;85.92
33949;BME280;20229;49.856;19.030;2023-12-20T21:08:22;100880.17;;;4.25;85.79
33949;BME280;20229;49.856;19.030;2023-12-20T21:13:36;100874.77;;;4.25;85.96
33949;BME280;20229;49.856;19.030;2023-12-20T21:18:53;100865.64;;;4.29;85.72
33949;BME280;20229;49.856;19.030;2023-12-20T21:24:07;100863.52;;;4.41;85.70
33949;BME280;20229;49.856;19.030;2023-12-20T21:29:22;100859.70;;;4.48;85.40
33949;BME280;20229;49.856;19.030;2023-12-20T21:34:36;100855.15;;;4.50;85.47
33949;BME280;20229;49.856;19.030;2023-12-20T21:39:50;100855.15;;;4.50;85.54
33949;BME280;20229;49.856;19.030;2023-12-20T21:45:05;100848.97;;;4.45;85.64
33949;BME280;20229;49.856;19.030;2023-12-20T21:50:19;100848.97;;;4.45;85.55
33949;BME280;20229;49.856;19.030;2023-12-20T21:55:39;100839.81;;;4.50;85.82
33949;BME280;20229;49.856;19.030;2023-12-20T22:00:56;100853.95;;;4.60;86.00
33949;BME280;20229;49.856;19.030;2023-12-20T22:06:10;100851.99;;;4.65;85.96
33949;BME280;20229;49.856;19.030;2023-12-20T22:11:24;100840.02;;;4.74;85.69
33949;BME280;20229;49.856;19.030;2023-12-20T22:16:38;100846.13;;;4.81;85.57
33949;BME280;20229;49.856;19.030;2023-12-20T22:21:54;100835.17;;;4.85;85.64
33949;BME280;20229;49.856;19.030;2023-12-20T22:27:09;100835.02;;;4.90;85.31
33949;BME280;20229;49.856;19.030;2023-12-20T22:32:23;100837.57;;;4.94;85.36
33949;BME280;20229;49.856;19.030;2023-12-20T22:37:38;100830.30;;;4.96;85.27
33949;BME280;20229;49.856;19.030;2023-12-20T22:42:52;100827.54;;;4.98;85.23
33949;BME280;20229;49.856;19.030;2023-12-20T22:48:07;100831.18;;;4.97;85.30
33949;BME280;20229;49.856;19.030;2023-12-20T22:53:21;100823.13;;;4.95;85.34
33949;BME280;20229;49.856;19.030;2023-12-20T22:58:37;100807.88;;;4.93;85.02
33949;BME280;20229;49.856;19.030;2023-12-20T23:03:52;100806.99;;;4.92;85.31
33949;BME280;20229;49.856;19.030;2023-12-20T23:09:06;100798.09;;;4.89;85.23
33949;BME280;20229;49.856;19.030;2023-12-20T23:14:21;100794.52;;;4.87;85.38
33949;BME280;20229;49.856;19.030;2023-12-20T23:19:35;100795.47;;;4.86;85.51
33949;BME280;20229;49.856;19.030;2023-12-20T23:24:49;100784.55;;;4.89;85.50
33949;BME280;20229;49.856;19.030;2023-12-20T23:30:05;100796.17;;;4.92;85.61
33949;BME280;20229;49.856;19.030;2023-12-20T23:35:20;100783.46;;;4.94;85.28
33949;BME280;20229;49.856;19.030;2023-12-20T23:40:33;100764.58;;;4.93;85.50
33949;BME280;20229;49.856;19.030;2023-12-20T23:45:47;100756.53;;;4.91;85.43
33949;BME280;20229;49.856;19.030;2023-12-20T23:51:01;100763.88;;;4.88;85.63
33949;BME280;20229;49.856;19.030;2023-12-20T23:56:15;100755.87;;;4.83;85.88
